METAR Data
IDs: Format: Raw Decoded Include TAF

Data at: 0632 UTC 23 Feb 2019

KABI 230552Z 15013KT 1SM R35R/P6000FT BR OVC002 11/11 A2974 RMK AO2 SLP064 T01060106 10122 20106 401330072 58016
KABI 230514Z 14010KT 1 3/4SM BR OVC003 11/11 A2977 RMK AO2 T01060106
KABI 230452Z 14012G17KT 2SM BR OVC003 11/11 A2977 RMK AO2 SLP075 T01110111
KABI 230352Z 13015KT 3SM BR OVC004 11/11 A2979 RMK AO2 SLP081 T01110106
KABI 230306Z 12015KT 4SM BR BKN004 OVC008 11/11 A2981 RMK AO2 T01060106
KABI 230252Z 12015KT 7SM OVC008 11/10 A2981 RMK AO2 SLP089 T01110100 58006
KABI 230229Z 11014KT 10SM BKN009 OVC014 11/10 A2984 RMK AO2 T01110100
KABI 230217Z 11011KT 10SM SCT007 OVC012 12/10 A2984 RMK AO2 T01170100
KABI 230152Z 10008G17KT 10SM SCT008 OVC015 12/10 A2984 RMK AO2 SLP099 T01170100
KABI 230148Z 09008G17KT 10SM FEW008 OVC015 12/10 A2985 RMK AO2
KABI 230052Z 09008KT 10SM BKN010 OVC016 12/10 A2983 RMK AO2 SLP096 T01170100
KABI 230005Z 10008KT 10SM BKN010 OVC015 12/10 A2983 RMK AO2 T01220100
KABI 222352Z 10009KT 10SM OVC015 13/11 A2983 RMK AO2 SLP094 T01280106 10133 20100 58011
KABI 222325Z 12009KT 10SM OVC015 13/11 A2983 RMK AO2 T01330106
KABI 222252Z 14010KT 10SM BKN012 OVC021 13/11 A2985 RMK AO2 SLP099 T01330106
KABI 222215Z 13006KT 10SM OVC011 13/11 A2985 RMK AO2 T01330106
KABI 222152Z 12008KT 10SM OVC009 13/11 A2985 RMK AO2 SLP102 T01280106
KABI 222123Z 13008KT 10SM OVC009 13/11 A2986 RMK AO2 T01280106
KABI 222052Z 17008KT 10SM OVC010 13/11 A2987 RMK AO2 SLP106 T01280106 56030
KABI 221952Z 12009KT 5SM BR OVC005 11/10 A2989 RMK AO2 SLP114 T01110100
KABI 221942Z 12010KT 3SM BR OVC005 11/10 A2989 RMK AO2 T01110100
KABI 221910Z 10007KT 2SM BR OVC004 11/10 A2991 RMK AO2 T01060100
KABI 221852Z 11008KT 1 1/4SM BR OVC004 11/10 A2992 RMK AO2 SLP127 T01060100
KABI 221805Z 11007KT 1 3/4SM BR OVC005 10/09 A2996 RMK AO2 T01000094
KABI 221752Z 13007KT 2 1/2SM BR OVC006 11/09 A2996 RMK AO2 SLP139 T01060094 10106 20072 56002
KABI 221652Z 12004KT 7SM OVC005 10/09 A2996 RMK AO2 SLP142 T01000094
KABI 221602Z 11005KT 5SM BR OVC004 09/09 A2996 RMK AO2 T00890089
KABI 221552Z 11004KT 2SM BR OVC004 09/08 A2996 RMK AO2 SLP144 T00890083
KABI 221452Z 10003KT 1SM R35R/4500VP6000FT BR OVC003 08/08 A2998 RMK AO2 SLP148 T00780078 51012
KABI 221443Z 11005KT 1SM R35R/4500V5500FT BR OVC002 08/08 A2997 RMK AO2 T00780078
KABI 221409Z 10006KT 3/4SM R35R/4500V5000FT BR OVC002 08/08 A2997 RMK AO2 T00780078
KABI 221352Z 09004KT 1SM R35R/5000VP6000FT BR OVC002 08/08 A2997 RMK AO2 SLP145 T00780078
KABI 221317Z 08004KT 1 3/4SM BR OVC003 08/08 A2996 RMK AO2 T00780078
KABI 221252Z 08005KT 2 1/2SM BR OVC003 07/07 A2996 RMK AO2 SLP139 T00720072
KABI 221239Z 09006KT 3SM BR OVC003 07/07 A2995 RMK AO2 T00720072
KABI 221214Z 10005KT 2SM BR OVC004 07/07 A2994 RMK AO2 T00720072
KABI 221205Z 10004KT 2SM BR OVC005 07/07 A2994 RMK AO2 CIG 003V008 T00720072
KABI 221152Z 10005KT 1 3/4SM BR OVC005 07/07 A2994 RMK AO2 CIG 003V008 SLP132 T00720072 10078 20072 51009
KABI 221148Z 11005KT 1 3/4SM BR OVC005 07/07 A2994 RMK AO2 CIG 003V008
KABI 221138Z 12006KT 2SM BR OVC005 07/07 A2993 RMK AO2 CIG 003V007 T00720072
KABI 221052Z 14008KT 5SM BR OVC005 08/07 A2992 RMK AO2 SLP124 T00780067
KABI 220952Z 15011KT 7SM OVC007 08/07 A2991 RMK AO2 SLP121 T00780067
KABI 220910Z 12009KT 9SM OVC009 08/06 A2987 RMK AO2 T00780061
KABI 220852Z 12015KT 10SM OVC010 08/06 A2988 RMK AO2 SLP109 T00780056 58020
KABI 220752Z 11010KT 10SM OVC012 08/04 A2991 RMK AO2 SLP121 T00780044
KABI 220709Z 11009KT 10SM BKN014 OVC019 08/04 A2991 RMK AO2 T00780039
KABI 220652Z 12009KT 10SM OVC017 08/04 A2992 RMK AO2 SLP126 T00780039
KABI 220552Z 12009KT 10SM OVC016 08/04 A2994 RMK AO2 SLP131 T00780039 10117 20061 401500061 51008
KABI 220536Z 12011KT 10SM OVC016 08/04 A2994 RMK AO2 T00780039
KABI 220523Z 12010KT 10SM BKN014 07/03 A2994 RMK AO2 T00720033
KABI 220452Z 11008KT 10SM CLR 06/03 A2993 RMK AO2 SLP130 T00610033
KABI 220352Z 11008KT 10SM CLR 07/02 A2992 RMK AO2 SLP129 T00670022
KABI 220252Z 10007KT 10SM CLR 08/02 A2991 RMK AO2 SLP125 T00780017 51016
KABI 220152Z 11010KT 10SM CLR 09/01 A2990 RMK AO2 SLP120 T00890006
KABI 220052Z 12010KT 10SM CLR 10/M01 A2988 RMK AO2 SLP112 T01001011
KABI 212352Z 13012KT 10SM CLR 12/M01 A2986 RMK AO2 SLP105 T01171006 10150 20117 53001
KABI 212252Z 12014KT 10SM CLR 13/M02 A2986 RMK AO2 SLP104 T01331017
KABI 212152Z 13018KT 10SM CLR 13/M04 A2985 RMK AO2 PK WND 14028/2113 SLP100 T01331039
KABI 212052Z 13020G24KT 10SM FEW050 14/M03 A2986 RMK AO2 SLP102 T01441033 58024
KABI 211952Z 12016KT 10SM CLR 13/M01 A2989 RMK AO2 SLP115 T01331006
KABI 211852Z 14018G27KT 10SM SCT060 14/M02 A2992 RMK AO2 PK WND 14027/1848 SLP123 T01391017